Ride Results

Oss Foley 119km Elevated 2009 (11-07-2009)
Ride distance: 119.0 km Elevator

Outcomes - Oss Foley 119km Elevated 2009 (11-07-2009)
Division No. of Entries Retired / DNE Completed Withdrawn Ineligible V/O Percentage Completed
HW 6 4 0 1 - 1 66.67%
MW 19 11 3 2 - 3 73.68%
LW 13 9 4 - - - 100.00%
JN 8 3 2 2 - 1 62.50%
Totals 46 27 9 5 - 5 78.26%
Results - Oss Foley 119km Elevated 2009 (11-07-2009)
No. Rider Horse Place Time Leg Speeds Total
Km/Hr
H/R bpm
Heavyweight
140 Stuart King Alcheringa Shopanii Retired/DNE L2 6:36:00 12.1, 12.1 12.12 36, 45, 49 (Avg:47)
93 Jeremy Ford Ruby Running Bare Retired/DNE L2 7:06:00 11.8, 10.7 11.27 36, 46, 54 (Avg:50)
14 Philip Gerke Davlyn Park Saphyre Retired/DNE L2 7:06:00 11.8, 10.7 11.27 36, 45, 45 (Avg:45)
17 Brett Bingham Reg Retired/DNE L2 8:54:00 9.9, 8.1 8.99 34, 46, 57 (Avg:51)
49 Penny Barnes Mrs Boyde Lame L2 0:00:00 11.3, 8.0 - 36, 48, 52 (Avg:50)
171 Craig Wall Bluegrass Geronimo Withdrawn L1 0:00:00 - - 36, 52 (Avg:52)
Middleweight
99 Heather Johnson Black Heart Dashar 1 (BC) 8:54:00 16.7, 13.8, 10.7 13.37 35, 44, 50, 50 (Avg:48)
69 Tracey Wyllie AT Buster 2 10:28:00 12.1, 11.9, 10.1 11.37 40, 53, 56, 50 (Avg:53)
169 Brent Marshall Meganja Park Mowgli 3 11:07:00 11.7, 11.4, 9.2 10.70 36, 43, 52, 50 (Avg:48)
O Jodi Hutchins Lauralyn Wezmar Retired/DNE L2 6:54:00 12.0, 11.1 11.59 25, 44, 38 (Avg:41)
72 Vivienne Lawson Duloe Nimbus Retired/DNE L2 6:57:00 11.6, 11.3 11.51 38, 48, 50 (Avg:49)
50 Joanne Marshall Razorback Charlotte Retired/DNE L2 7:01:00 11.8, 10.9 11.40 36, 49, 50 (Avg:49)
162 Linda Pilgrim Lauralyn Travis Retired/DNE L2 7:03:00 11.1, 11.5 11.35 44, 51, 49 (Avg:50)
165 Fletch Fletcher Diamond Tail Desert Opal Retired/DNE L2 7:06:00 11.8, 10.7 11.27 35, 46, 58 (Avg:52)
160 Stacey Dodd Malricia Ibn Sass Retired/DNE L2 7:21:00 10.9, 10.8 10.88 44, 46, 48 (Avg:47)
184 Janelle McLeod Bevolin Races The Wind Retired/DNE L2 7:25:00 11.7, 9.9 10.79 34, 46, 49 (Avg:47)
180 Nicole Ford Jemma Retired/DNE L2 8:41:00 9.8, 8.6 9.21 34, 46, 52 (Avg:49)
132 Carolyn Foley-Jones Highland View JJ Retired/DNE L2 8:54:00 9.8, 8.2 8.99 34, 43, 54 (Avg:48)
88 Anthony Bloom Kerribea Retired/DNE L2 8:55:00 8.5, 9.4 8.97 32, 45, 53 (Avg:49)
194 Kelly Woodhouse Saaremaa Park Safi Latif Retired/DNE L2 8:55:00 8.5, 9.4 8.97 34, 48, 55 (Avg:51)
22 Helen Astell Underwood Infinity Lame L2 0:00:00 9.8, 8.1 - 36, 45, 52 (Avg:48)
40 Ricky Febey Darryl Lame L2 0:00:00 9.9, 8.1 - 38, 52, 58 (Avg:55)
55 Jane Stratton Aloha Zetoile Heart Rate L2 0:00:00 13.7, 6.6 - 34, 39, 68 (Avg:53)
68 Janine Parr Madame Pandora Withdrawn P/R 0:00:00 - - 31
38 Tony Purton Beer Street Tiger Lily Withdrawn P/R 0:00:00 - - 37
Lightweight
12 Anita Hutchins Malricia Jess 1 (BC) 8:04:00 15.0, 15.2, 13.9 14.75 36, 44, 47, 45 (Avg:45)
144 Helan Green Snowdon Vale Estarah 2 8:54:00 16.7, 13.8, 10.7 13.37 36, 46, 47, 47 (Avg:46)
136 Kaye Mitchell Beer Street Bluewitch 3 10:24:00 9.4, 13.7, 11.9 11.44 36, 40, 50, 56 (Avg:48)
179 Debbie Grull Lauralyn Notorious 4 10:46:00 10.0, 12.6, 10.7 11.05 30, 42, 51, 46 (Avg:46)
60 Jill Lowth Orabanda Dancing Silhouette Retired/DNE L2 6:54:00 13.7, 10.0 11.59 35, 45, 54 (Avg:49)
51 Debbie Leary Kasdell Reprieve Retired/DNE L2 6:55:00 11.7, 11.4 11.57 34, 42, 49 (Avg:45)
1 Ann Richards Kintamani Sahir Retired/DNE L2 7:01:00 11.8, 10.9 11.40 34, 47, 56 (Avg:51)
100 Trish Smith Beaucheval Akhiran Retired/DNE L2 7:02:00 11.9, 10.8 11.37 33, 51, 51 (Avg:51)
16 Margaret Richardson Bold Belle Retired/DNE L2 7:06:00 11.8, 10.7 11.27 29, 40, 42 (Avg:41)
164 Lydia Brown Highland View Jess Retired/DNE L2 7:11:00 10.0, 12.4 11.14 32, 47, 54 (Avg:50)
117 Penny Lasdauskas Winston Retired/DNE L2 7:11:00 11.7, 10.5 11.14 33, 41, 52 (Avg:46)
19 Sonia Hodgetts Millennium Star Retired/DNE L2 7:21:00 10.9, 10.8 10.88 38, 48, 54 (Avg:51)
161 Mary Parkinson Elphyn Shadow Retired/DNE L2 7:47:00 10.3, 10.2 10.28 36, 45, 49 (Avg:47)
Junior
74 Jaz Hutchins Woodsong Kade 1 (BC) 8:04:00 15.0, 15.2, 13.9 14.75 37, 42, 50, 55 (Avg:49)
147 Rhiannon Clayton Touchwarr Shara 2 10:28:00 12.1, 11.9, 10.1 11.37 36, 46, 44, 52 (Avg:47)
107 Samantha Sward Follydown Gai Rah-Ni Retired/DNE L2 7:25:00 11.8, 9.8 10.79 36, 41, 42 (Avg:41)
92 Blaine Astell Cameo Izaiah Retired/DNE L2 8:33:00 9.8, 8.9 9.36 37, 45, 50 (Avg:47)
18 Sheleah Astell Double Helix Retired/DNE L2 9:02:00 9.8, 8.0 8.86 32, 41, 54 (Avg:47)
198 Grace Huxtable Highland View Bundy Lame L2 0:00:00 9.8, 8.6 - 24, 48, 49 (Avg:48)
197 Alice Mitchell Krystal Creek Karisma Withdrawn L1 0:00:00 - - 38, 50 (Avg:50)
187 Ellie Woodhouse Grail Withdrawn L1 0:00:00 - - 31, 40 (Avg:40)